Relevés horaires Bierset (Belgique)


Relevés horaires à Bierset - Samedi 09 Mai 2020
Heure UTC1 Température [°C] Vent [km/h] Hum. [%] Pres.4 [hPa] Visi. [Km] Nébu. [octa] Préc.5 [mm] Cond.
2m. Res. Ros. Dir.2 Vit. Moy. Raf.3
23:00 16.6 16.6 8.8 S 5.6 7.4 11.1 60 1008.3(-1.2/3h) 30 7/8 -- --
22:00 17.4 17.4 10.3 S 5.6 7.4 11.1 63 1008.9(0.2/3h) 30 7/8 -- --
21:00 17.9 17.9 11.0 SE 5.6 5.6 11.1 64 1009.1(-0.1/3h) 30 7/8 -- --
20:00 19.2 19.2 10.3 SSE 3.7 5.6 11.1 56 1009.3(-0.1/3h) 30 7/8 -- --
19:00 20.5 20.5 8.2 SSE 1.9 3.7 11.1 45 1008.9(-0.6/3h) 30 7/8 -- --
18:00 20.6 20.6 9.3 SSE 3.7 7.4 14.8 48 1009.1(-1.0/3h) 30 6/8 0/12h
--
17:00 20.9 20.9 9.9 SSE 5.6 7.4 14.8 49 1009.2(-1.5/3h) 45 4/8 -- --
16:00 23.5 23.5 8.4 ENE 3.7 5.6 11.1 38 1009.3(-1.8/3h) 20 3/8 -- --
15:00 23.4 23.4 7.9 NNO 3.7 7.4 13.0 37 1009.9(-1.9/3h) 20 1/8 -- --
14:00 23.4 23.4 8.2 NE 5.6 5.6 11.1 38 1010.6(-1.6/3h) 20 2/8 -- --
13:00 22.8 22.8 8.5 N 5.6 7.4 13.0 40 1011.2(-1.3/3h) 25 7/8 -- --
12:00 21.5 21.5 8.2 N 5.6 5.6 18.5 42 1012(-0.8/3h) 25 7/8 0/6h
--
11:00 21.2 21.2 7.7 NNO 1.9 3.7 16.7 42 1012.3(-0.7/3h) 18 6/8 -- --
10:00 20.8 20.8 7.5 S 1.9 3.7 7.4 42 1012.7(-0.5/3h) 12 5/8 -- --
09:00 19.2 19.2 6.3 NNO 1.9 3.7 18.5 43 1013(-0.3/3h) 12 7/8 -- --
08:00 17.6 17.6 7.8 SE 1.9 1.9 3.7 53 1013.3(0.1/3h) 9 7/8 -- --
07:00 13.5 13.5 7.5 SE 1.9 3.7 18.5 67 1013.7(0.0/3h) 12 7/8 -- --
06:00 12.6 12.6 6.4 ESE 1.9 5.6 14.8 66 1013.9(-0.2/3h) 10 7/8 0/12h
--
05:00 11.7 11.7 5.9 NNE 1.9 3.7 9.3 68 1013.8(-0.8/3h) 10 7/8 -- --
04:00 12.3 12.3 4.1 ENE 1.9 3.7 14.8 57 1013.9(-1.2/3h) 11 7/8 -- --
03:00 12.1 12.1 4.7 NE 1.9 5.6 9.3 61 1014.1(-1.3/3h) 11 7/8 -- --
02:00 12.9 12.9 5.0 NE 3.7 3.7 9.3 59 1014.5(-1.0/3h) 11 7/8 -- --
01:00 14.3 14.3 4.1 E 3.7 5.6 7.4 50 1014.9(-0.9/3h) 11 7/8 -- --

1 Coordinated Universal Time. Actuellement il est 11:00 locale et 09:00 UTC.

2 Le vent souffle depuis la direction indiquée vers la direction oposée.

3 Les rafales max. sont disponible 40 min après l'heure du relevé.

4 Pour les stations d'altitude (plus de 600m) le géopotentiel du niveau le plus proche de la pression obligatoire est indiqué.

5 Les stations disposant d'un diffuseur peuvent indiquer "trace". Cela signifie que des précipitations ont touchés le sol mais que la quantité est inférieure à 0.1 mm.

Récapitulatif de la journée
Température [°C] Vent [km/h] Ensoleillement4 [h] Precipitations totale5 [mm] Pression [Hpa]
Min1 Max.2 Moy.3 Max. Min Max.
11.2 24.0 5.2 18.5 0 h 0 min 0 1008.3 1014.9

1 Température minimale relevée entre 18:00 UTC la veille et 18:00 UTC le jour donné.

2 Température maximale relevée entre 06:00 UTC le jour donné et 06:00 UTC le lendemain.

3 Vent moyen de la journée basé sur les relevés horaires.

4 Ensoleillement en heures relevé entre 06:00 UTC la veille et 06:00 UTC le jour donné.

5 Précipitations totales tombées entre 06:00 UTC la jour donné et 06:00 UTC le lendemain.

Graphiques horaires